sensor_id;sensor_type;location;lat;lon;timestamp;P1;durP1;ratioP1;P2;durP2;ratioP2
17207;SDS011;8720;48.488;9.202;2023-05-07T00:01:07;6.10;;;4.90;;
17207;SDS011;8720;48.488;9.202;2023-05-07T00:03:34;6.73;;;4.97;;
17207;SDS011;8720;48.488;9.202;2023-05-07T00:06:03;5.53;;;5.03;;
17207;SDS011;8720;48.488;9.202;2023-05-07T00:08:30;7.77;;;5.30;;
17207;SDS011;8720;48.488;9.202;2023-05-07T00:10:58;6.03;;;5.40;;
17207;SDS011;8720;48.488;9.202;2023-05-07T00:13:25;5.00;;;4.50;;
17207;SDS011;8720;48.488;9.202;2023-05-07T00:15:53;5.10;;;4.50;;
17207;SDS011;8720;48.488;9.202;2023-05-07T00:18:21;5.20;;;4.70;;
17207;SDS011;8720;48.488;9.202;2023-05-07T00:20:48;6.00;;;5.40;;
17207;SDS011;8720;48.488;9.202;2023-05-07T00:23:15;10.63;;;6.33;;
17207;SDS011;8720;48.488;9.202;2023-05-07T00:25:42;9.27;;;6.37;;
17207;SDS011;8720;48.488;9.202;2023-05-07T00:28:10;6.93;;;6.33;;
17207;SDS011;8720;48.488;9.202;2023-05-07T00:30:37;6.53;;;5.97;;
17207;SDS011;8720;48.488;9.202;2023-05-07T00:33:06;7.10;;;6.50;;
17207;SDS011;8720;48.488;9.202;2023-05-07T00:35:33;7.07;;;6.37;;
17207;SDS011;8720;48.488;9.202;2023-05-07T00:38:00;6.80;;;6.20;;
17207;SDS011;8720;48.488;9.202;2023-05-07T00:40:28;8.30;;;7.30;;
17207;SDS011;8720;48.488;9.202;2023-05-07T00:42:55;7.73;;;7.03;;
17207;SDS011;8720;48.488;9.202;2023-05-07T00:45:23;6.70;;;6.20;;
17207;SDS011;8720;48.488;9.202;2023-05-07T00:47:54;6.87;;;6.27;;
17207;SDS011;8720;48.488;9.202;2023-05-07T00:50:23;7.47;;;6.77;;
17207;SDS011;8720;48.488;9.202;2023-05-07T00:52:51;6.03;;;5.43;;
17207;SDS011;8720;48.488;9.202;2023-05-07T00:55:19;6.23;;;5.63;;
17207;SDS011;8720;48.488;9.202;2023-05-07T00:57:48;7.20;;;6.50;;
17207;SDS011;8720;48.488;9.202;2023-05-07T01:00:17;5.50;;;5.00;;
17207;SDS011;8720;48.488;9.202;2023-05-07T01:02:45;5.97;;;5.37;;
17207;SDS011;8720;48.488;9.202;2023-05-07T01:05:13;5.70;;;5.20;;
17207;SDS011;8720;48.488;9.202;2023-05-07T01:07:46;5.97;;;4.63;;
17207;SDS011;8720;48.488;9.202;2023-05-07T01:10:15;5.30;;;4.80;;
17207;SDS011;8720;48.488;9.202;2023-05-07T01:12:44;7.57;;;4.93;;
17207;SDS011;8720;48.488;9.202;2023-05-07T01:15:12;6.13;;;5.53;;
17207;SDS011;8720;48.488;9.202;2023-05-07T01:17:41;7.63;;;5.40;;
17207;SDS011;8720;48.488;9.202;2023-05-07T01:20:19;5.57;;;4.80;;
17207;SDS011;8720;48.488;9.202;2023-05-07T01:22:52;5.03;;;4.63;;
17207;SDS011;8720;48.488;9.202;2023-05-07T01:25:21;6.57;;;4.00;;
17207;SDS011;8720;48.488;9.202;2023-05-07T01:27:52;6.90;;;4.70;;
17207;SDS011;8720;48.488;9.202;2023-05-07T01:30:24;5.47;;;4.83;;
17207;SDS011;8720;48.488;9.202;2023-05-07T01:32:56;4.33;;;3.80;;
17207;SDS011;8720;48.488;9.202;2023-05-07T01:35:29;5.00;;;4.43;;
17207;SDS011;8720;48.488;9.202;2023-05-07T01:38:03;5.87;;;5.37;;
17207;SDS011;8720;48.488;9.202;2023-05-07T01:40:32;5.07;;;4.67;;
17207;SDS011;8720;48.488;9.202;2023-05-07T01:43:00;6.30;;;5.70;;
17207;SDS011;8720;48.488;9.202;2023-05-07T01:45:30;7.40;;;5.40;;
17207;SDS011;8720;48.488;9.202;2023-05-07T01:47:58;6.47;;;4.90;;
17207;SDS011;8720;48.488;9.202;2023-05-07T01:50:28;6.20;;;5.70;;
17207;SDS011;8720;48.488;9.202;2023-05-07T01:52:57;5.87;;;5.37;;
17207;SDS011;8720;48.488;9.202;2023-05-07T01:55:26;5.70;;;5.20;;
17207;SDS011;8720;48.488;9.202;2023-05-07T01:57:53;6.07;;;5.57;;
17207;SDS011;8720;48.488;9.202;2023-05-07T02:03:03;5.90;;;5.40;;
17207;SDS011;8720;48.488;9.202;2023-05-07T02:05:39;5.10;;;4.60;;
17207;SDS011;8720;48.488;9.202;2023-05-07T02:08:14;5.20;;;4.70;;
17207;SDS011;8720;48.488;9.202;2023-05-07T02:10:42;6.70;;;4.67;;
17207;SDS011;8720;48.488;9.202;2023-05-07T02:13:10;5.77;;;4.50;;
17207;SDS011;8720;48.488;9.202;2023-05-07T02:15:37;5.37;;;4.60;;
17207;SDS011;8720;48.488;9.202;2023-05-07T02:18:05;4.93;;;4.53;;
17207;SDS011;8720;48.488;9.202;2023-05-07T02:20:35;6.63;;;4.57;;
17207;SDS011;8720;48.488;9.202;2023-05-07T02:23:02;6.03;;;5.50;;
17207;SDS011;8720;48.488;9.202;2023-05-07T02:25:29;5.30;;;4.80;;
17207;SDS011;8720;48.488;9.202;2023-05-07T02:27:59;4.73;;;4.17;;
17207;SDS011;8720;48.488;9.202;2023-05-07T02:30:44;5.53;;;5.03;;
17207;SDS011;8720;48.488;9.202;2023-05-07T02:33:14;6.37;;;5.77;;
17207;SDS011;8720;48.488;9.202;2023-05-07T02:35:41;9.80;;;5.33;;
17207;SDS011;8720;48.488;9.202;2023-05-07T02:38:11;6.93;;;6.20;;
17207;SDS011;8720;48.488;9.202;2023-05-07T02:40:40;6.97;;;6.30;;
17207;SDS011;8720;48.488;9.202;2023-05-07T02:43:08;5.93;;;5.43;;
17207;SDS011;8720;48.488;9.202;2023-05-07T02:45:36;7.60;;;6.50;;
17207;SDS011;8720;48.488;9.202;2023-05-07T02:48:05;6.10;;;5.50;;
17207;SDS011;8720;48.488;9.202;2023-05-07T02:50:32;6.27;;;5.10;;
17207;SDS011;8720;48.488;9.202;2023-05-07T02:53:00;7.30;;;5.00;;
17207;SDS011;8720;48.488;9.202;2023-05-07T02:55:28;7.37;;;4.50;;
17207;SDS011;8720;48.488;9.202;2023-05-07T02:57:55;4.70;;;4.30;;
17207;SDS011;8720;48.488;9.202;2023-05-07T03:00:25;6.20;;;4.60;;
17207;SDS011;8720;48.488;9.202;2023-05-07T03:03:07;4.90;;;4.40;;
17207;SDS011;8720;48.488;9.202;2023-05-07T03:05:34;5.73;;;4.60;;
17207;SDS011;8720;48.488;9.202;2023-05-07T03:08:01;4.77;;;4.30;;
17207;SDS011;8720;48.488;9.202;2023-05-07T03:10:29;7.40;;;4.10;;
17207;SDS011;8720;48.488;9.202;2023-05-07T03:12:56;5.00;;;4.20;;
17207;SDS011;8720;48.488;9.202;2023-05-07T03:15:25;5.23;;;4.53;;
17207;SDS011;8720;48.488;9.202;2023-05-07T03:17:52;4.73;;;4.33;;
17207;SDS011;8720;48.488;9.202;2023-05-07T03:20:20;4.13;;;3.73;;
17207;SDS011;8720;48.488;9.202;2023-05-07T03:22:47;4.13;;;3.63;;
17207;SDS011;8720;48.488;9.202;2023-05-07T03:25:14;4.40;;;3.70;;
17207;SDS011;8720;48.488;9.202;2023-05-07T03:27:41;4.30;;;3.77;;
17207;SDS011;8720;48.488;9.202;2023-05-07T03:30:10;4.27;;;3.90;;
17207;SDS011;8720;48.488;9.202;2023-05-07T03:32:39;4.93;;;3.83;;
17207;SDS011;8720;48.488;9.202;2023-05-07T03:35:10;4.87;;;4.43;;
17207;SDS011;8720;48.488;9.202;2023-05-07T03:37:37;5.00;;;3.80;;
17207;SDS011;8720;48.488;9.202;2023-05-07T03:40:06;4.33;;;3.93;;
17207;SDS011;8720;48.488;9.202;2023-05-07T03:42:42;4.33;;;3.93;;
17207;SDS011;8720;48.488;9.202;2023-05-07T03:45:11;4.10;;;3.70;;
17207;SDS011;8720;48.488;9.202;2023-05-07T03:47:43;4.30;;;3.90;;
17207;SDS011;8720;48.488;9.202;2023-05-07T03:50:15;6.10;;;4.20;;
17207;SDS011;8720;48.488;9.202;2023-05-07T03:52:42;6.70;;;4.73;;
17207;SDS011;8720;48.488;9.202;2023-05-07T03:55:14;4.33;;;3.93;;
17207;SDS011;8720;48.488;9.202;2023-05-07T03:57:47;5.30;;;4.50;;
17207;SDS011;8720;48.488;9.202;2023-05-07T04:00:15;4.90;;;3.87;;
17207;SDS011;8720;48.488;9.202;2023-05-07T04:02:47;4.87;;;4.47;;
17207;SDS011;8720;48.488;9.202;2023-05-07T04:05:20;7.60;;;5.70;;
17207;SDS011;8720;48.488;9.202;2023-05-07T04:07:51;4.40;;;4.00;;
17207;SDS011;8720;48.488;9.202;2023-05-07T04:10:23;4.50;;;4.10;;
17207;SDS011;8720;48.488;9.202;2023-05-07T04:12:54;5.40;;;4.57;;
17207;SDS011;8720;48.488;9.202;2023-05-07T04:15:22;5.17;;;4.70;;
17207;SDS011;8720;48.488;9.202;2023-05-07T04:17:51;4.90;;;4.40;;
17207;SDS011;8720;48.488;9.202;2023-05-07T04:20:21;4.23;;;3.83;;
17207;SDS011;8720;48.488;9.202;2023-05-07T04:22:54;4.33;;;3.93;;
17207;SDS011;8720;48.488;9.202;2023-05-07T04:25:22;4.33;;;3.93;;
17207;SDS011;8720;48.488;9.202;2023-05-07T04:27:56;5.00;;;4.37;;
17207;SDS011;8720;48.488;9.202;2023-05-07T04:30:26;4.30;;;3.90;;
17207;SDS011;8720;48.488;9.202;2023-05-07T04:32:54;5.50;;;4.23;;
17207;SDS011;8720;48.488;9.202;2023-05-07T04:35:24;5.30;;;4.07;;
17207;SDS011;8720;48.488;9.202;2023-05-07T04:37:52;4.17;;;3.77;;
17207;SDS011;8720;48.488;9.202;2023-05-07T04:40:20;6.10;;;4.57;;
17207;SDS011;8720;48.488;9.202;2023-05-07T04:42:48;5.23;;;4.43;;
17207;SDS011;8720;48.488;9.202;2023-05-07T04:45:15;4.60;;;4.20;;
17207;SDS011;8720;48.488;9.202;2023-05-07T04:47:44;5.60;;;4.00;;
17207;SDS011;8720;48.488;9.202;2023-05-07T04:50:13;4.80;;;4.30;;
17207;SDS011;8720;48.488;9.202;2023-05-07T04:52:43;5.23;;;4.20;;
17207;SDS011;8720;48.488;9.202;2023-05-07T04:55:10;5.40;;;4.00;;
17207;SDS011;8720;48.488;9.202;2023-05-07T04:57:39;5.20;;;4.57;;
17207;SDS011;8720;48.488;9.202;2023-05-07T05:00:09;5.30;;;4.80;;
17207;SDS011;8720;48.488;9.202;2023-05-07T05:02:40;5.87;;;5.33;;
17207;SDS011;8720;48.488;9.202;2023-05-07T05:05:08;7.67;;;5.40;;
17207;SDS011;8720;48.488;9.202;2023-05-07T05:07:36;7.70;;;5.37;;
17207;SDS011;8720;48.488;9.202;2023-05-07T05:10:05;5.93;;;5.43;;
17207;SDS011;8720;48.488;9.202;2023-05-07T05:12:36;5.63;;;5.13;;
17207;SDS011;8720;48.488;9.202;2023-05-07T05:15:04;6.83;;;5.03;;
17207;SDS011;8720;48.488;9.202;2023-05-07T05:17:33;5.93;;;5.40;;
17207;SDS011;8720;48.488;9.202;2023-05-07T05:20:04;5.27;;;4.77;;
17207;SDS011;8720;48.488;9.202;2023-05-07T05:22:33;6.27;;;4.30;;
17207;SDS011;8720;48.488;9.202;2023-05-07T05:25:02;4.80;;;4.40;;
17207;SDS011;8720;48.488;9.202;2023-05-07T05:27:31;6.03;;;4.50;;
17207;SDS011;8720;48.488;9.202;2023-05-07T05:29:58;4.10;;;3.80;;
17207;SDS011;8720;48.488;9.202;2023-05-07T05:32:27;5.63;;;4.30;;
17207;SDS011;8720;48.488;9.202;2023-05-07T05:34:55;4.30;;;4.00;;
17207;SDS011;8720;48.488;9.202;2023-05-07T05:37:25;4.70;;;4.30;;
17207;SDS011;8720;48.488;9.202;2023-05-07T05:39:53;4.60;;;4.17;;
17207;SDS011;8720;48.488;9.202;2023-05-07T05:42:22;5.30;;;4.80;;
17207;SDS011;8720;48.488;9.202;2023-05-07T05:44:50;5.13;;;4.63;;
17207;SDS011;8720;48.488;9.202;2023-05-07T05:47:17;5.37;;;4.00;;
17207;SDS011;8720;48.488;9.202;2023-05-07T05:49:45;5.60;;;4.23;;
17207;SDS011;8720;48.488;9.202;2023-05-07T05:52:14;4.20;;;3.90;;
17207;SDS011;8720;48.488;9.202;2023-05-07T05:54:42;4.43;;;4.13;;
17207;SDS011;8720;48.488;9.202;2023-05-07T05:57:10;4.10;;;3.70;;
17207;SDS011;8720;48.488;9.202;2023-05-07T05:59:38;3.80;;;3.40;;
17207;SDS011;8720;48.488;9.202;2023-05-07T06:02:06;3.87;;;3.47;;
17207;SDS011;8720;48.488;9.202;2023-05-07T06:04:33;4.07;;;3.67;;
17207;SDS011;8720;48.488;9.202;2023-05-07T06:07:01;4.00;;;3.70;;
17207;SDS011;8720;48.488;9.202;2023-05-07T06:09:29;4.10;;;3.50;;
17207;SDS011;8720;48.488;9.202;2023-05-07T06:11:56;3.70;;;3.40;;
17207;SDS011;8720;48.488;9.202;2023-05-07T06:14:23;11.77;;;3.87;;
17207;SDS011;8720;48.488;9.202;2023-05-07T06:16:52;3.80;;;3.50;;
17207;SDS011;8720;48.488;9.202;2023-05-07T06:19:19;4.00;;;3.33;;
17207;SDS011;8720;48.488;9.202;2023-05-07T06:21:49;4.43;;;4.13;;
17207;SDS011;8720;48.488;9.202;2023-05-07T06:24:17;3.53;;;3.20;;
17207;SDS011;8720;48.488;9.202;2023-05-07T06:26:44;3.90;;;3.60;;
17207;SDS011;8720;48.488;9.202;2023-05-07T06:29:12;4.00;;;3.70;;
17207;SDS011;8720;48.488;9.202;2023-05-07T06:31:41;4.57;;;3.53;;
17207;SDS011;8720;48.488;9.202;2023-05-07T06:34:11;3.83;;;3.53;;
17207;SDS011;8720;48.488;9.202;2023-05-07T06:36:40;4.07;;;3.73;;
17207;SDS011;8720;48.488;9.202;2023-05-07T06:39:16;3.50;;;3.20;;
17207;SDS011;8720;48.488;9.202;2023-05-07T06:41:43;3.57;;;3.27;;
17207;SDS011;8720;48.488;9.202;2023-05-07T06:44:20;4.43;;;3.97;;
17207;SDS011;8720;48.488;9.202;2023-05-07T06:46:58;3.33;;;3.10;;
17207;SDS011;8720;48.488;9.202;2023-05-07T06:49:27;3.47;;;3.23;;
17207;SDS011;8720;48.488;9.202;2023-05-07T06:51:54;5.23;;;3.70;;
17207;SDS011;8720;48.488;9.202;2023-05-07T06:54:22;3.80;;;3.50;;
17207;SDS011;8720;48.488;9.202;2023-05-07T06:56:49;4.80;;;3.90;;
17207;SDS011;8720;48.488;9.202;2023-05-07T06:59:17;3.63;;;3.17;;
17207;SDS011;8720;48.488;9.202;2023-05-07T07:01:44;5.33;;;4.00;;
17207;SDS011;8720;48.488;9.202;2023-05-07T07:04:12;4.40;;;4.03;;
17207;SDS011;8720;48.488;9.202;2023-05-07T07:06:43;3.73;;;3.17;;
17207;SDS011;8720;48.488;9.202;2023-05-07T07:09:12;4.67;;;3.80;;
17207;SDS011;8720;48.488;9.202;2023-05-07T07:11:40;4.27;;;3.77;;
17207;SDS011;8720;48.488;9.202;2023-05-07T07:14:08;4.00;;;3.70;;
17207;SDS011;8720;48.488;9.202;2023-05-07T07:16:43;4.17;;;3.87;;
17207;SDS011;8720;48.488;9.202;2023-05-07T07:19:12;3.90;;;3.47;;
17207;SDS011;8720;48.488;9.202;2023-05-07T07:21:43;3.10;;;2.77;;
17207;SDS011;8720;48.488;9.202;2023-05-07T07:24:12;3.90;;;3.60;;
17207;SDS011;8720;48.488;9.202;2023-05-07T07:26:45;4.07;;;3.67;;
17207;SDS011;8720;48.488;9.202;2023-05-07T07:29:15;5.03;;;3.93;;
17207;SDS011;8720;48.488;9.202;2023-05-07T07:31:44;3.67;;;3.37;;
17207;SDS011;8720;48.488;9.202;2023-05-07T07:34:12;3.70;;;3.40;;
17207;SDS011;8720;48.488;9.202;2023-05-07T07:36:39;3.90;;;3.60;;
17207;SDS011;8720;48.488;9.202;2023-05-07T07:39:09;3.50;;;3.20;;
17207;SDS011;8720;48.488;9.202;2023-05-07T07:41:36;3.80;;;3.40;;
17207;SDS011;8720;48.488;9.202;2023-05-07T07:44:04;4.33;;;3.50;;
17207;SDS011;8720;48.488;9.202;2023-05-07T07:46:35;3.90;;;3.53;;
17207;SDS011;8720;48.488;9.202;2023-05-07T07:49:02;3.50;;;3.13;;
17207;SDS011;8720;48.488;9.202;2023-05-07T07:51:31;3.73;;;3.33;;
17207;SDS011;8720;48.488;9.202;2023-05-07T07:54:00;5.13;;;3.07;;
17207;SDS011;8720;48.488;9.202;2023-05-07T07:56:31;3.90;;;3.20;;
17207;SDS011;8720;48.488;9.202;2023-05-07T07:59:00;3.60;;;3.30;;
17207;SDS011;8720;48.488;9.202;2023-05-07T08:01:32;4.37;;;3.97;;
17207;SDS011;8720;48.488;9.202;2023-05-07T08:03:59;4.77;;;3.23;;
17207;SDS011;8720;48.488;9.202;2023-05-07T08:06:30;4.27;;;3.50;;
17207;SDS011;8720;48.488;9.202;2023-05-07T08:08:57;3.30;;;3.00;;
17207;SDS011;8720;48.488;9.202;2023-05-07T08:11:24;3.70;;;3.40;;
17207;SDS011;8720;48.488;9.202;2023-05-07T08:13:55;3.90;;;3.60;;
17207;SDS011;8720;48.488;9.202;2023-05-07T08:16:23;3.90;;;3.50;;
17207;SDS011;8720;48.488;9.202;2023-05-07T08:18:52;4.00;;;3.60;;
17207;SDS011;8720;48.488;9.202;2023-05-07T08:21:19;4.40;;;4.00;;
17207;SDS011;8720;48.488;9.202;2023-05-07T08:23:46;3.70;;;3.40;;
17207;SDS011;8720;48.488;9.202;2023-05-07T08:26:14;4.50;;;3.53;;
17207;SDS011;8720;48.488;9.202;2023-05-07T08:28:42;4.07;;;3.77;;
17207;SDS011;8720;48.488;9.202;2023-05-07T08:31:10;3.90;;;3.60;;
17207;SDS011;8720;48.488;9.202;2023-05-07T08:33:40;3.77;;;3.40;;
17207;SDS011;8720;48.488;9.202;2023-05-07T08:36:07;4.07;;;3.77;;
17207;SDS011;8720;48.488;9.202;2023-05-07T08:38:35;4.20;;;3.80;;
17207;SDS011;8720;48.488;9.202;2023-05-07T08:41:02;3.87;;;3.50;;
17207;SDS011;8720;48.488;9.202;2023-05-07T08:43:30;5.17;;;3.73;;
17207;SDS011;8720;48.488;9.202;2023-05-07T08:46:02;4.07;;;3.67;;
17207;SDS011;8720;48.488;9.202;2023-05-07T08:48:36;3.70;;;3.40;;
17207;SDS011;8720;48.488;9.202;2023-05-07T08:51:11;3.60;;;3.30;;
17207;SDS011;8720;48.488;9.202;2023-05-07T08:53:40;3.60;;;3.30;;
17207;SDS011;8720;48.488;9.202;2023-05-07T08:56:11;3.57;;;3.27;;
17207;SDS011;8720;48.488;9.202;2023-05-07T08:58:40;3.80;;;3.50;;
17207;SDS011;8720;48.488;9.202;2023-05-07T09:01:08;4.20;;;3.80;;
17207;SDS011;8720;48.488;9.202;2023-05-07T09:03:45;3.33;;;3.00;;
17207;SDS011;8720;48.488;9.202;2023-05-07T09:06:14;3.90;;;3.60;;
17207;SDS011;8720;48.488;9.202;2023-05-07T09:08:44;7.40;;;3.63;;
17207;SDS011;8720;48.488;9.202;2023-05-07T09:11:19;4.63;;;4.00;;
17207;SDS011;8720;48.488;9.202;2023-05-07T09:13:48;4.73;;;4.33;;
17207;SDS011;8720;48.488;9.202;2023-05-07T09:16:20;4.07;;;3.77;;
17207;SDS011;8720;48.488;9.202;2023-05-07T09:18:52;4.47;;;3.70;;
17207;SDS011;8720;48.488;9.202;2023-05-07T09:21:21;5.03;;;4.23;;
17207;SDS011;8720;48.488;9.202;2023-05-07T09:23:50;4.80;;;4.00;;
17207;SDS011;8720;48.488;9.202;2023-05-07T09:26:22;4.60;;;4.20;;
17207;SDS011;8720;48.488;9.202;2023-05-07T09:28:51;4.50;;;4.10;;
17207;SDS011;8720;48.488;9.202;2023-05-07T09:31:20;4.73;;;4.33;;
17207;SDS011;8720;48.488;9.202;2023-05-07T09:33:49;4.10;;;3.40;;
17207;SDS011;8720;48.488;9.202;2023-05-07T09:36:22;4.17;;;3.80;;
17207;SDS011;8720;48.488;9.202;2023-05-07T09:38:50;4.47;;;4.17;;
17207;SDS011;8720;48.488;9.202;2023-05-07T09:41:17;3.60;;;3.30;;
17207;SDS011;8720;48.488;9.202;2023-05-07T09:43:59;3.63;;;3.33;;
17207;SDS011;8720;48.488;9.202;2023-05-07T09:46:35;3.53;;;3.23;;
17207;SDS011;8720;48.488;9.202;2023-05-07T09:49:19;3.90;;;3.60;;
17207;SDS011;8720;48.488;9.202;2023-05-07T09:51:56;6.67;;;3.57;;
17207;SDS011;8720;48.488;9.202;2023-05-07T09:54:28;5.67;;;3.30;;
17207;SDS011;8720;48.488;9.202;2023-05-07T09:56:59;3.70;;;3.40;;
17207;SDS011;8720;48.488;9.202;2023-05-07T09:59:29;3.17;;;2.87;;
17207;SDS011;8720;48.488;9.202;2023-05-07T10:02:02;3.97;;;2.67;;
17207;SDS011;8720;48.488;9.202;2023-05-07T10:04:38;2.90;;;2.60;;
17207;SDS011;8720;48.488;9.202;2023-05-07T10:07:07;3.20;;;2.90;;
17207;SDS011;8720;48.488;9.202;2023-05-07T10:09:36;4.90;;;2.27;;
17207;SDS011;8720;48.488;9.202;2023-05-07T10:12:12;2.70;;;2.50;;
17207;SDS011;8720;48.488;9.202;2023-05-07T10:14:40;2.40;;;2.17;;
17207;SDS011;8720;48.488;9.202;2023-05-07T10:17:08;2.57;;;2.37;;
17207;SDS011;8720;48.488;9.202;2023-05-07T10:19:42;3.43;;;2.63;;
17207;SDS011;8720;48.488;9.202;2023-05-07T10:22:11;2.47;;;2.27;;
17207;SDS011;8720;48.488;9.202;2023-05-07T10:24:44;2.83;;;2.27;;
17207;SDS011;8720;48.488;9.202;2023-05-07T10:27:16;2.67;;;2.47;;
17207;SDS011;8720;48.488;9.202;2023-05-07T10:29:52;2.63;;;2.43;;
17207;SDS011;8720;48.488;9.202;2023-05-07T10:32:36;3.17;;;2.40;;
17207;SDS011;8720;48.488;9.202;2023-05-07T10:35:17;3.40;;;2.20;;
17207;SDS011;8720;48.488;9.202;2023-05-07T10:37:49;3.57;;;1.73;;
17207;SDS011;8720;48.488;9.202;2023-05-07T10:40:19;2.20;;;2.00;;
17207;SDS011;8720;48.488;9.202;2023-05-07T10:42:58;2.37;;;2.17;;
17207;SDS011;8720;48.488;9.202;2023-05-07T10:45:33;2.50;;;2.20;;
17207;SDS011;8720;48.488;9.202;2023-05-07T10:48:05;2.23;;;1.93;;
17207;SDS011;8720;48.488;9.202;2023-05-07T10:50:39;3.40;;;2.10;;
17207;SDS011;8720;48.488;9.202;2023-05-07T10:53:22;2.30;;;2.10;;
17207;SDS011;8720;48.488;9.202;2023-05-07T11:02:18;2.33;;;2.00;;
17207;SDS011;8720;48.488;9.202;2023-05-07T11:08:27;1.93;;;1.73;;
17207;SDS011;8720;48.488;9.202;2023-05-07T11:11:44;2.33;;;1.93;;
17207;SDS011;8720;48.488;9.202;2023-05-07T11:17:17;2.47;;;2.10;;
17207;SDS011;8720;48.488;9.202;2023-05-07T11:19:52;3.87;;;2.60;;
17207;SDS011;8720;48.488;9.202;2023-05-07T11:22:37;4.20;;;2.10;;
17207;SDS011;8720;48.488;9.202;2023-05-07T11:25:19;3.63;;;2.57;;
17207;SDS011;8720;48.488;9.202;2023-05-07T11:27:52;5.20;;;3.20;;
17207;SDS011;8720;48.488;9.202;2023-05-07T11:30:30;2.47;;;2.27;;
17207;SDS011;8720;48.488;9.202;2023-05-07T11:32:58;5.17;;;3.40;;
17207;SDS011;8720;48.488;9.202;2023-05-07T11:35:26;4.00;;;2.90;;
17207;SDS011;8720;48.488;9.202;2023-05-07T11:37:57;2.10;;;1.90;;
17207;SDS011;8720;48.488;9.202;2023-05-07T11:40:28;3.30;;;2.93;;
17207;SDS011;8720;48.488;9.202;2023-05-07T11:42:56;3.10;;;2.80;;
17207;SDS011;8720;48.488;9.202;2023-05-07T11:45:23;3.00;;;2.63;;
17207;SDS011;8720;48.488;9.202;2023-05-07T11:47:51;4.50;;;3.30;;
17207;SDS011;8720;48.488;9.202;2023-05-07T11:50:18;5.70;;;3.13;;
17207;SDS011;8720;48.488;9.202;2023-05-07T11:52:50;5.47;;;4.57;;
17207;SDS011;8720;48.488;9.202;2023-05-07T11:55:18;4.57;;;3.53;;
17207;SDS011;8720;48.488;9.202;2023-05-07T11:57:48;3.40;;;3.10;;
17207;SDS011;8720;48.488;9.202;2023-05-07T12:00:16;4.37;;;3.97;;
17207;SDS011;8720;48.488;9.202;2023-05-07T12:02:44;3.57;;;3.10;;
17207;SDS011;8720;48.488;9.202;2023-05-07T12:05:12;3.60;;;3.30;;
17207;SDS011;8720;48.488;9.202;2023-05-07T12:07:39;3.67;;;3.23;;
17207;SDS011;8720;48.488;9.202;2023-05-07T12:10:07;3.30;;;2.97;;
17207;SDS011;8720;48.488;9.202;2023-05-07T12:12:40;3.33;;;2.83;;
17207;SDS011;8720;48.488;9.202;2023-05-07T12:15:09;3.40;;;3.10;;
17207;SDS011;8720;48.488;9.202;2023-05-07T12:17:37;3.60;;;3.07;;
17207;SDS011;8720;48.488;9.202;2023-05-07T12:20:06;3.13;;;2.93;;
17207;SDS011;8720;48.488;9.202;2023-05-07T12:22:34;3.40;;;3.10;;
17207;SDS011;8720;48.488;9.202;2023-05-07T12:25:03;3.73;;;3.33;;
17207;SDS011;8720;48.488;9.202;2023-05-07T12:27:31;3.40;;;2.90;;
17207;SDS011;8720;48.488;9.202;2023-05-07T12:30:03;4.83;;;3.97;;
17207;SDS011;8720;48.488;9.202;2023-05-07T12:32:33;3.10;;;2.90;;
17207;SDS011;8720;48.488;9.202;2023-05-07T12:35:02;3.50;;;3.20;;
17207;SDS011;8720;48.488;9.202;2023-05-07T12:37:32;3.10;;;2.90;;
17207;SDS011;8720;48.488;9.202;2023-05-07T12:40:05;3.43;;;3.13;;
17207;SDS011;8720;48.488;9.202;2023-05-07T12:42:35;4.43;;;2.63;;
17207;SDS011;8720;48.488;9.202;2023-05-07T12:45:08;3.40;;;3.10;;
17207;SDS011;8720;48.488;9.202;2023-05-07T12:47:37;3.00;;;2.80;;
17207;SDS011;8720;48.488;9.202;2023-05-07T12:50:05;4.47;;;3.20;;
17207;SDS011;8720;48.488;9.202;2023-05-07T12:52:33;3.10;;;2.90;;
17207;SDS011;8720;48.488;9.202;2023-05-07T12:55:05;4.30;;;3.93;;
17207;SDS011;8720;48.488;9.202;2023-05-07T12:57:37;4.33;;;3.93;;
17207;SDS011;8720;48.488;9.202;2023-05-07T13:00:06;4.37;;;3.83;;
17207;SDS011;8720;48.488;9.202;2023-05-07T13:02:38;6.20;;;4.30;;
17207;SDS011;8720;48.488;9.202;2023-05-07T13:05:09;3.67;;;3.37;;
17207;SDS011;8720;48.488;9.202;2023-05-07T13:07:36;3.70;;;3.40;;
17207;SDS011;8720;48.488;9.202;2023-05-07T13:10:04;3.70;;;3.40;;
17207;SDS011;8720;48.488;9.202;2023-05-07T13:12:33;4.13;;;3.73;;
17207;SDS011;8720;48.488;9.202;2023-05-07T13:15:00;4.63;;;4.00;;
17207;SDS011;8720;48.488;9.202;2023-05-07T13:17:28;3.23;;;2.70;;
17207;SDS011;8720;48.488;9.202;2023-05-07T13:19:57;5.13;;;3.40;;
17207;SDS011;8720;48.488;9.202;2023-05-07T13:22:24;4.23;;;2.80;;
17207;SDS011;8720;48.488;9.202;2023-05-07T13:24:52;3.23;;;2.93;;
17207;SDS011;8720;48.488;9.202;2023-05-07T13:27:19;4.00;;;3.00;;
17207;SDS011;8720;48.488;9.202;2023-05-07T13:29:47;5.67;;;3.80;;
17207;SDS011;8720;48.488;9.202;2023-05-07T13:32:14;5.17;;;4.07;;
17207;SDS011;8720;48.488;9.202;2023-05-07T13:34:41;4.13;;;3.73;;
17207;SDS011;8720;48.488;9.202;2023-05-07T13:37:10;4.40;;;3.40;;
17207;SDS011;8720;48.488;9.202;2023-05-07T13:39:37;5.20;;;3.60;;
17207;SDS011;8720;48.488;9.202;2023-05-07T13:42:06;5.23;;;3.60;;
17207;SDS011;8720;48.488;9.202;2023-05-07T13:44:33;4.20;;;3.60;;
17207;SDS011;8720;48.488;9.202;2023-05-07T13:47:01;4.90;;;3.73;;
17207;SDS011;8720;48.488;9.202;2023-05-07T13:49:28;4.37;;;3.30;;
17207;SDS011;8720;48.488;9.202;2023-05-07T13:51:55;4.23;;;3.70;;
17207;SDS011;8720;48.488;9.202;2023-05-07T13:54:24;4.00;;;3.20;;
17207;SDS011;8720;48.488;9.202;2023-05-07T13:56:51;5.47;;;3.37;;
17207;SDS011;8720;48.488;9.202;2023-05-07T13:59:19;4.00;;;3.60;;
17207;SDS011;8720;48.488;9.202;2023-05-07T14:01:46;3.90;;;3.40;;
17207;SDS011;8720;48.488;9.202;2023-05-07T14:04:14;3.77;;;3.43;;
17207;SDS011;8720;48.488;9.202;2023-05-07T14:06:43;5.50;;;3.10;;
17207;SDS011;8720;48.488;9.202;2023-05-07T14:09:10;5.50;;;3.47;;
17207;SDS011;8720;48.488;9.202;2023-05-07T14:11:39;5.30;;;3.43;;
17207;SDS011;8720;48.488;9.202;2023-05-07T14:14:07;4.90;;;3.73;;
17207;SDS011;8720;48.488;9.202;2023-05-07T14:16:35;5.80;;;3.77;;
17207;SDS011;8720;48.488;9.202;2023-05-07T14:19:03;5.27;;;4.00;;
17207;SDS011;8720;48.488;9.202;2023-05-07T14:21:30;7.00;;;5.07;;
17207;SDS011;8720;48.488;9.202;2023-05-07T14:23:57;7.00;;;6.00;;
17207;SDS011;8720;48.488;9.202;2023-05-07T14:26:25;3.67;;;3.20;;
17207;SDS011;8720;48.488;9.202;2023-05-07T14:28:54;3.47;;;3.17;;
17207;SDS011;8720;48.488;9.202;2023-05-07T14:31:23;13.47;;;9.53;;
17207;SDS011;8720;48.488;9.202;2023-05-07T14:33:51;12.83;;;9.50;;
17207;SDS011;8720;48.488;9.202;2023-05-07T14:36:19;10.83;;;7.10;;
17207;SDS011;8720;48.488;9.202;2023-05-07T14:38:48;5.20;;;4.47;;
17207;SDS011;8720;48.488;9.202;2023-05-07T14:41:15;4.33;;;3.87;;
17207;SDS011;8720;48.488;9.202;2023-05-07T14:43:42;4.20;;;3.80;;
17207;SDS011;8720;48.488;9.202;2023-05-07T14:46:16;4.53;;;4.10;;
17207;SDS011;8720;48.488;9.202;2023-05-07T14:48:44;4.10;;;3.80;;
17207;SDS011;8720;48.488;9.202;2023-05-07T14:51:12;4.30;;;3.60;;
17207;SDS011;8720;48.488;9.202;2023-05-07T14:53:40;3.10;;;2.90;;
17207;SDS011;8720;48.488;9.202;2023-05-07T14:56:08;3.90;;;3.50;;
17207;SDS011;8720;48.488;9.202;2023-05-07T14:58:35;4.40;;;3.93;;
17207;SDS011;8720;48.488;9.202;2023-05-07T15:01:03;4.23;;;3.47;;
17207;SDS011;8720;48.488;9.202;2023-05-07T15:03:32;4.20;;;3.87;;
17207;SDS011;8720;48.488;9.202;2023-05-07T15:06:00;5.20;;;4.07;;
17207;SDS011;8720;48.488;9.202;2023-05-07T15:08:28;5.67;;;4.10;;
17207;SDS011;8720;48.488;9.202;2023-05-07T15:10:55;3.30;;;3.00;;
17207;SDS011;8720;48.488;9.202;2023-05-07T15:13:23;5.30;;;2.87;;
17207;SDS011;8720;48.488;9.202;2023-05-07T15:15:51;5.03;;;3.30;;
17207;SDS011;8720;48.488;9.202;2023-05-07T15:18:19;3.67;;;3.37;;
17207;SDS011;8720;48.488;9.202;2023-05-07T15:20:47;3.53;;;3.20;;
17207;SDS011;8720;48.488;9.202;2023-05-07T15:23:16;3.53;;;3.00;;
17207;SDS011;8720;48.488;9.202;2023-05-07T15:25:46;5.87;;;3.23;;
17207;SDS011;8720;48.488;9.202;2023-05-07T15:28:14;4.07;;;3.67;;
17207;SDS011;8720;48.488;9.202;2023-05-07T15:30:41;4.80;;;4.10;;